LICB

Comiso Airport

Airport
ICAO code
LICB
IATA Code
CIY
Summary
ICAO Region
EUR
ICAO Territory
Location

Comiso, Sicily

Serving
Comiso
Elevation
620 ft
Coordinates
36° 59' 41" N , 14° 36' 27" E
KCC
Metar
Observation
LICB 031920Z AUTO 06004KT 9999 NCD 05/04 Q1027
Station
Comiso As Usaf
Date/Time
2023-02-03 19:20:00
Wind direction
60°
Wind speed
04 kts
Lowest cloud amount
no clouds detected
Temperature
5°C
Dew point
4°C
Humidity
93%
QNH
1027 hPa
Weather condition
n/a

Comiso Airport "Pio La Torre", also known as Vincenzo Magliocco Airport, is located in the Sicilian town of Comiso in the Ragusa province.

Climatology

Warm mediterranean climate (Köppen climate classification Csa)

Runways

Designator Length Width Surface Rops
5/23 2460 45 ASPHALT No/No

Airport map

Aerial View

SKYbrary Partners:

Safety knowledge contributed by: